sensor_id;sensor_type;location;lat;lon;timestamp;P1;durP1;ratioP1;P2;durP2;ratioP2
6564;SDS011;3316;44.118;27.258;2022-09-01T00:02:13;10.27;;;6.00;;
6564;SDS011;3316;44.118;27.258;2022-09-01T00:04:41;8.32;;;5.85;;
6564;SDS011;3316;44.118;27.258;2022-09-01T00:07:08;8.73;;;5.50;;
6564;SDS011;3316;44.118;27.258;2022-09-01T00:09:36;11.40;;;6.60;;
6564;SDS011;3316;44.118;27.258;2022-09-01T00:12:03;9.68;;;6.07;;
6564;SDS011;3316;44.118;27.258;2022-09-01T00:14:31;9.13;;;6.22;;
6564;SDS011;3316;44.118;27.258;2022-09-01T00:17:00;10.07;;;5.57;;
6564;SDS011;3316;44.118;27.258;2022-09-01T00:19:28;7.57;;;5.80;;
6564;SDS011;3316;44.118;27.258;2022-09-01T00:21:54;11.25;;;6.03;;
6564;SDS011;3316;44.118;27.258;2022-09-01T00:24:20;9.77;;;6.80;;
6564;SDS011;3316;44.118;27.258;2022-09-01T00:26:46;10.10;;;6.22;;
6564;SDS011;3316;44.118;27.258;2022-09-01T00:29:12;9.93;;;6.15;;
6564;SDS011;3316;44.118;27.258;2022-09-01T00:31:39;9.18;;;6.18;;
6564;SDS011;3316;44.118;27.258;2022-09-01T00:34:05;12.30;;;6.80;;
6564;SDS011;3316;44.118;27.258;2022-09-01T00:36:32;10.40;;;6.40;;
6564;SDS011;3316;44.118;27.258;2022-09-01T00:38:58;8.80;;;6.55;;
6564;SDS011;3316;44.118;27.258;2022-09-01T00:41:25;11.85;;;6.80;;
6564;SDS011;3316;44.118;27.258;2022-09-01T00:43:54;13.50;;;7.07;;
6564;SDS011;3316;44.118;27.258;2022-09-01T00:46:28;12.98;;;6.80;;
6564;SDS011;3316;44.118;27.258;2022-09-01T00:49:10;11.38;;;6.53;;
6564;SDS011;3316;44.118;27.258;2022-09-01T00:51:39;10.75;;;6.65;;
6564;SDS011;3316;44.118;27.258;2022-09-01T00:54:10;10.63;;;6.57;;
6564;SDS011;3316;44.118;27.258;2022-09-01T00:56:40;14.63;;;6.90;;
6564;SDS011;3316;44.118;27.258;2022-09-01T00:59:07;10.23;;;6.13;;
6564;SDS011;3316;44.118;27.258;2022-09-01T01:01:37;10.77;;;6.15;;
6564;SDS011;3316;44.118;27.258;2022-09-01T01:04:04;11.25;;;6.43;;
6564;SDS011;3316;44.118;27.258;2022-09-01T01:06:39;14.15;;;7.25;;
6564;SDS011;3316;44.118;27.258;2022-09-01T01:09:14;9.45;;;6.10;;
6564;SDS011;3316;44.118;27.258;2022-09-01T01:11:44;11.07;;;6.80;;
6564;SDS011;3316;44.118;27.258;2022-09-01T01:14:12;11.65;;;6.30;;
6564;SDS011;3316;44.118;27.258;2022-09-01T01:16:40;8.77;;;6.65;;
6564;SDS011;3316;44.118;27.258;2022-09-01T01:19:52;9.60;;;5.82;;
6564;SDS011;3316;44.118;27.258;2022-09-01T01:22:26;9.27;;;6.55;;
6564;SDS011;3316;44.118;27.258;2022-09-01T01:25:27;8.88;;;6.20;;
6564;SDS011;3316;44.118;27.258;2022-09-01T01:30:33;12.95;;;6.97;;
6564;SDS011;3316;44.118;27.258;2022-09-01T01:33:00;10.73;;;6.22;;
6564;SDS011;3316;44.118;27.258;2022-09-01T01:35:27;9.85;;;5.97;;
6564;SDS011;3316;44.118;27.258;2022-09-01T01:37:53;9.40;;;6.57;;
6564;SDS011;3316;44.118;27.258;2022-09-01T01:40:19;11.05;;;6.00;;
6564;SDS011;3316;44.118;27.258;2022-09-01T01:42:47;12.00;;;5.80;;
6564;SDS011;3316;44.118;27.258;2022-09-01T01:45:16;11.85;;;6.70;;
6564;SDS011;3316;44.118;27.258;2022-09-01T01:47:44;15.32;;;6.50;;
6564;SDS011;3316;44.118;27.258;2022-09-01T01:50:17;9.07;;;6.03;;
6564;SDS011;3316;44.118;27.258;2022-09-01T01:52:44;8.45;;;5.80;;
6564;SDS011;3316;44.118;27.258;2022-09-01T01:55:11;8.93;;;6.35;;
6564;SDS011;3316;44.118;27.258;2022-09-01T01:57:38;13.05;;;6.40;;
6564;SDS011;3316;44.118;27.258;2022-09-01T02:00:06;8.80;;;5.70;;
6564;SDS011;3316;44.118;27.258;2022-09-01T02:02:32;12.10;;;6.18;;
6564;SDS011;3316;44.118;27.258;2022-09-01T02:04:57;9.43;;;5.60;;
6564;SDS011;3316;44.118;27.258;2022-09-01T02:07:23;10.65;;;5.80;;
6564;SDS011;3316;44.118;27.258;2022-09-01T02:09:49;7.88;;;6.05;;
6564;SDS011;3316;44.118;27.258;2022-09-01T02:12:14;10.13;;;6.57;;
6564;SDS011;3316;44.118;27.258;2022-09-01T02:14:43;10.18;;;5.80;;
6564;SDS011;3316;44.118;27.258;2022-09-01T02:17:09;12.25;;;6.68;;
6564;SDS011;3316;44.118;27.258;2022-09-01T02:19:34;9.32;;;6.35;;
6564;SDS011;3316;44.118;27.258;2022-09-01T02:22:02;11.32;;;6.60;;
6564;SDS011;3316;44.118;27.258;2022-09-01T02:24:28;9.53;;;6.10;;
6564;SDS011;3316;44.118;27.258;2022-09-01T02:26:55;9.10;;;6.28;;
6564;SDS011;3316;44.118;27.258;2022-09-01T02:29:25;10.27;;;6.25;;
6564;SDS011;3316;44.118;27.258;2022-09-01T02:31:52;13.88;;;6.90;;
6564;SDS011;3316;44.118;27.258;2022-09-01T02:34:20;11.15;;;6.53;;
6564;SDS011;3316;44.118;27.258;2022-09-01T02:36:49;9.97;;;5.60;;
6564;SDS011;3316;44.118;27.258;2022-09-01T02:39:17;8.27;;;5.60;;
6564;SDS011;3316;44.118;27.258;2022-09-01T02:41:49;11.00;;;6.68;;
6564;SDS011;3316;44.118;27.258;2022-09-01T02:44:15;9.90;;;6.67;;
6564;SDS011;3316;44.118;27.258;2022-09-01T02:46:46;10.37;;;6.07;;
6564;SDS011;3316;44.118;27.258;2022-09-01T02:49:16;10.40;;;6.53;;
6564;SDS011;3316;44.118;27.258;2022-09-01T02:51:49;10.10;;;6.23;;
6564;SDS011;3316;44.118;27.258;2022-09-01T02:54:18;12.23;;;6.57;;
6564;SDS011;3316;44.118;27.258;2022-09-01T02:56:46;11.17;;;6.97;;
6564;SDS011;3316;44.118;27.258;2022-09-01T02:59:16;7.93;;;6.70;;
6564;SDS011;3316;44.118;27.258;2022-09-01T03:01:46;8.68;;;6.63;;
6564;SDS011;3316;44.118;27.258;2022-09-01T03:04:14;10.30;;;6.50;;
6564;SDS011;3316;44.118;27.258;2022-09-01T03:06:39;11.38;;;6.72;;
6564;SDS011;3316;44.118;27.258;2022-09-01T03:09:09;11.50;;;6.47;;
6564;SDS011;3316;44.118;27.258;2022-09-01T03:11:43;12.27;;;6.30;;
6564;SDS011;3316;44.118;27.258;2022-09-01T03:14:11;14.20;;;6.67;;
6564;SDS011;3316;44.118;27.258;2022-09-01T03:16:38;8.50;;;6.65;;
6564;SDS011;3316;44.118;27.258;2022-09-01T03:19:05;10.15;;;6.45;;
6564;SDS011;3316;44.118;27.258;2022-09-01T03:21:34;7.78;;;6.15;;
6564;SDS011;3316;44.118;27.258;2022-09-01T03:24:01;11.32;;;6.75;;
6564;SDS011;3316;44.118;27.258;2022-09-01T03:26:29;9.87;;;6.47;;
6564;SDS011;3316;44.118;27.258;2022-09-01T03:28:55;10.20;;;7.67;;
6564;SDS011;3316;44.118;27.258;2022-09-01T03:31:21;11.07;;;6.30;;
6564;SDS011;3316;44.118;27.258;2022-09-01T03:33:51;9.90;;;7.63;;
6564;SDS011;3316;44.118;27.258;2022-09-01T03:36:18;12.13;;;6.72;;
6564;SDS011;3316;44.118;27.258;2022-09-01T03:38:47;11.73;;;6.35;;
6564;SDS011;3316;44.118;27.258;2022-09-01T03:41:14;10.33;;;6.43;;
6564;SDS011;3316;44.118;27.258;2022-09-01T03:43:42;11.98;;;7.22;;
6564;SDS011;3316;44.118;27.258;2022-09-01T03:46:08;15.97;;;7.60;;
6564;SDS011;3316;44.118;27.258;2022-09-01T03:48:40;26.90;;;7.93;;
6564;SDS011;3316;44.118;27.258;2022-09-01T03:51:07;13.13;;;6.30;;
6564;SDS011;3316;44.118;27.258;2022-09-01T03:53:34;10.65;;;7.38;;
6564;SDS011;3316;44.118;27.258;2022-09-01T03:56:02;15.18;;;6.95;;
6564;SDS011;3316;44.118;27.258;2022-09-01T03:58:28;11.50;;;7.23;;
6564;SDS011;3316;44.118;27.258;2022-09-01T04:00:54;12.93;;;7.00;;
6564;SDS011;3316;44.118;27.258;2022-09-01T04:03:23;10.27;;;6.47;;
6564;SDS011;3316;44.118;27.258;2022-09-01T04:05:51;15.68;;;6.90;;
6564;SDS011;3316;44.118;27.258;2022-09-01T04:08:18;9.68;;;6.57;;
6564;SDS011;3316;44.118;27.258;2022-09-01T04:10:46;13.30;;;6.70;;
6564;SDS011;3316;44.118;27.258;2022-09-01T04:13:17;10.65;;;6.70;;
6564;SDS011;3316;44.118;27.258;2022-09-01T04:15:46;10.70;;;6.55;;
6564;SDS011;3316;44.118;27.258;2022-09-01T04:18:12;9.45;;;6.47;;
6564;SDS011;3316;44.118;27.258;2022-09-01T04:20:51;10.95;;;6.22;;
6564;SDS011;3316;44.118;27.258;2022-09-01T04:23:27;6.35;;;5.30;;
6564;SDS011;3316;44.118;27.258;2022-09-01T04:25:55;8.52;;;6.45;;
6564;SDS011;3316;44.118;27.258;2022-09-01T04:28:33;11.48;;;6.18;;
6564;SDS011;3316;44.118;27.258;2022-09-01T04:31:17;11.48;;;6.35;;
6564;SDS011;3316;44.118;27.258;2022-09-01T04:33:46;13.43;;;6.30;;
6564;SDS011;3316;44.118;27.258;2022-09-01T04:36:18;10.43;;;5.80;;
6564;SDS011;3316;44.118;27.258;2022-09-01T04:38:49;10.48;;;6.03;;
6564;SDS011;3316;44.118;27.258;2022-09-01T04:41:19;8.10;;;6.20;;
6564;SDS011;3316;44.118;27.258;2022-09-01T04:43:58;10.85;;;6.28;;
6564;SDS011;3316;44.118;27.258;2022-09-01T04:46:29;7.00;;;5.70;;
6564;SDS011;3316;44.118;27.258;2022-09-01T04:48:57;8.43;;;7.00;;
6564;SDS011;3316;44.118;27.258;2022-09-01T04:51:23;9.00;;;5.78;;
6564;SDS011;3316;44.118;27.258;2022-09-01T04:53:52;8.55;;;6.03;;
6564;SDS011;3316;44.118;27.258;2022-09-01T04:56:22;8.65;;;6.00;;
6564;SDS011;3316;44.118;27.258;2022-09-01T04:58:49;8.80;;;5.85;;
6564;SDS011;3316;44.118;27.258;2022-09-01T05:01:21;12.50;;;7.28;;
6564;SDS011;3316;44.118;27.258;2022-09-01T05:03:48;7.65;;;5.55;;
6564;SDS011;3316;44.118;27.258;2022-09-01T05:06:20;8.23;;;5.90;;
6564;SDS011;3316;44.118;27.258;2022-09-01T05:08:47;11.48;;;6.20;;
6564;SDS011;3316;44.118;27.258;2022-09-01T05:11:13;7.55;;;5.80;;
6564;SDS011;3316;44.118;27.258;2022-09-01T05:13:42;10.50;;;6.30;;
6564;SDS011;3316;44.118;27.258;2022-09-01T05:16:10;10.90;;;6.28;;
6564;SDS011;3316;44.118;27.258;2022-09-01T05:18:39;9.07;;;5.85;;
6564;SDS011;3316;44.118;27.258;2022-09-01T05:21:10;10.75;;;6.25;;
6564;SDS011;3316;44.118;27.258;2022-09-01T05:23:37;8.15;;;5.88;;
6564;SDS011;3316;44.118;27.258;2022-09-01T05:26:04;10.52;;;5.82;;
6564;SDS011;3316;44.118;27.258;2022-09-01T05:28:38;11.55;;;6.18;;
6564;SDS011;3316;44.118;27.258;2022-09-01T05:31:05;7.70;;;5.82;;
6564;SDS011;3316;44.118;27.258;2022-09-01T05:33:31;9.13;;;5.47;;
6564;SDS011;3316;44.118;27.258;2022-09-01T05:35:58;7.68;;;5.32;;
6564;SDS011;3316;44.118;27.258;2022-09-01T05:38:25;9.90;;;5.70;;
6564;SDS011;3316;44.118;27.258;2022-09-01T05:40:54;8.45;;;5.72;;
6564;SDS011;3316;44.118;27.258;2022-09-01T05:43:27;9.65;;;5.63;;
6564;SDS011;3316;44.118;27.258;2022-09-01T05:45:55;7.78;;;5.28;;
6564;SDS011;3316;44.118;27.258;2022-09-01T05:48:25;9.38;;;5.47;;
6564;SDS011;3316;44.118;27.258;2022-09-01T05:50:52;10.65;;;5.70;;
6564;SDS011;3316;44.118;27.258;2022-09-01T05:53:22;9.90;;;5.57;;
6564;SDS011;3316;44.118;27.258;2022-09-01T05:55:49;6.70;;;4.95;;
6564;SDS011;3316;44.118;27.258;2022-09-01T05:58:21;8.23;;;5.28;;
6564;SDS011;3316;44.118;27.258;2022-09-01T06:00:49;9.80;;;5.70;;
6564;SDS011;3316;44.118;27.258;2022-09-01T06:03:16;13.88;;;6.07;;
6564;SDS011;3316;44.118;27.258;2022-09-01T06:05:42;12.05;;;4.90;;
6564;SDS011;3316;44.118;27.258;2022-09-01T06:08:09;7.32;;;4.93;;
6564;SDS011;3316;44.118;27.258;2022-09-01T06:10:38;11.45;;;5.57;;
6564;SDS011;3316;44.118;27.258;2022-09-01T06:13:06;7.85;;;5.18;;
6564;SDS011;3316;44.118;27.258;2022-09-01T06:15:32;10.25;;;6.22;;
6564;SDS011;3316;44.118;27.258;2022-09-01T06:18:00;9.38;;;4.93;;
6564;SDS011;3316;44.118;27.258;2022-09-01T06:20:25;7.95;;;5.32;;
6564;SDS011;3316;44.118;27.258;2022-09-01T06:22:51;7.75;;;5.15;;
6564;SDS011;3316;44.118;27.258;2022-09-01T06:25:18;5.90;;;4.93;;
6564;SDS011;3316;44.118;27.258;2022-09-01T06:27:44;13.18;;;5.15;;
6564;SDS011;3316;44.118;27.258;2022-09-01T06:30:12;7.30;;;5.07;;
6564;SDS011;3316;44.118;27.258;2022-09-01T06:32:41;9.00;;;4.95;;
6564;SDS011;3316;44.118;27.258;2022-09-01T06:35:11;7.18;;;5.75;;
6564;SDS011;3316;44.118;27.258;2022-09-01T06:37:40;9.27;;;5.50;;
6564;SDS011;3316;44.118;27.258;2022-09-01T06:40:08;8.98;;;4.88;;
6564;SDS011;3316;44.118;27.258;2022-09-01T06:42:41;8.93;;;5.07;;
6564;SDS011;3316;44.118;27.258;2022-09-01T06:45:12;8.10;;;4.72;;
6564;SDS011;3316;44.118;27.258;2022-09-01T06:47:39;6.70;;;5.07;;
6564;SDS011;3316;44.118;27.258;2022-09-01T06:50:09;10.35;;;4.60;;
6564;SDS011;3316;44.118;27.258;2022-09-01T06:52:37;8.02;;;4.55;;
6564;SDS011;3316;44.118;27.258;2022-09-01T06:55:04;9.27;;;4.93;;
6564;SDS011;3316;44.118;27.258;2022-09-01T06:57:30;9.32;;;4.82;;
6564;SDS011;3316;44.118;27.258;2022-09-01T06:59:56;8.75;;;5.18;;
6564;SDS011;3316;44.118;27.258;2022-09-01T07:02:21;6.88;;;4.90;;
6564;SDS011;3316;44.118;27.258;2022-09-01T07:04:48;7.15;;;4.95;;
6564;SDS011;3316;44.118;27.258;2022-09-01T07:07:15;7.32;;;5.07;;
6564;SDS011;3316;44.118;27.258;2022-09-01T07:09:41;10.70;;;4.80;;
6564;SDS011;3316;44.118;27.258;2022-09-01T07:12:07;6.35;;;5.45;;
6564;SDS011;3316;44.118;27.258;2022-09-01T07:14:32;8.48;;;4.60;;
6564;SDS011;3316;44.118;27.258;2022-09-01T07:16:57;7.00;;;4.82;;
6564;SDS011;3316;44.118;27.258;2022-09-01T07:19:24;10.07;;;4.90;;
6564;SDS011;3316;44.118;27.258;2022-09-01T07:21:50;9.90;;;5.00;;
6564;SDS011;3316;44.118;27.258;2022-09-01T07:24:17;12.45;;;5.35;;
6564;SDS011;3316;44.118;27.258;2022-09-01T07:26:45;8.02;;;4.60;;
6564;SDS011;3316;44.118;27.258;2022-09-01T07:29:15;13.60;;;4.80;;
6564;SDS011;3316;44.118;27.258;2022-09-01T07:31:45;6.47;;;4.18;;
6564;SDS011;3316;44.118;27.258;2022-09-01T07:34:11;8.32;;;4.47;;
6564;SDS011;3316;44.118;27.258;2022-09-01T07:36:38;6.30;;;4.68;;
6564;SDS011;3316;44.118;27.258;2022-09-01T07:39:06;8.75;;;5.38;;
6564;SDS011;3316;44.118;27.258;2022-09-01T07:41:31;6.63;;;4.53;;
6564;SDS011;3316;44.118;27.258;2022-09-01T07:43:59;10.57;;;5.30;;
6564;SDS011;3316;44.118;27.258;2022-09-01T07:46:25;11.77;;;5.30;;
6564;SDS011;3316;44.118;27.258;2022-09-01T07:48:52;7.80;;;4.95;;
6564;SDS011;3316;44.118;27.258;2022-09-01T07:51:19;9.23;;;4.82;;
6564;SDS011;3316;44.118;27.258;2022-09-01T07:53:47;6.78;;;4.50;;
6564;SDS011;3316;44.118;27.258;2022-09-01T07:56:14;9.10;;;4.78;;
6564;SDS011;3316;44.118;27.258;2022-09-01T07:58:42;9.88;;;4.50;;
6564;SDS011;3316;44.118;27.258;2022-09-01T08:01:10;8.73;;;4.63;;
6564;SDS011;3316;44.118;27.258;2022-09-01T08:03:43;7.40;;;4.50;;
6564;SDS011;3316;44.118;27.258;2022-09-01T08:06:11;8.20;;;4.95;;
6564;SDS011;3316;44.118;27.258;2022-09-01T08:08:38;15.23;;;4.95;;
6564;SDS011;3316;44.118;27.258;2022-09-01T08:11:05;7.47;;;4.50;;
6564;SDS011;3316;44.118;27.258;2022-09-01T08:13:32;6.03;;;4.75;;
6564;SDS011;3316;44.118;27.258;2022-09-01T08:15:58;16.33;;;4.70;;
6564;SDS011;3316;44.118;27.258;2022-09-01T08:18:28;9.65;;;4.63;;
6564;SDS011;3316;44.118;27.258;2022-09-01T08:20:53;7.65;;;4.90;;
6564;SDS011;3316;44.118;27.258;2022-09-01T08:23:19;13.90;;;4.88;;
6564;SDS011;3316;44.118;27.258;2022-09-01T08:25:45;6.95;;;4.90;;
6564;SDS011;3316;44.118;27.258;2022-09-01T08:28:12;6.10;;;5.32;;
6564;SDS011;3316;44.118;27.258;2022-09-01T08:30:39;10.57;;;5.13;;
6564;SDS011;3316;44.118;27.258;2022-09-01T08:33:06;11.40;;;4.65;;
6564;SDS011;3316;44.118;27.258;2022-09-01T08:35:36;8.60;;;4.50;;
6564;SDS011;3316;44.118;27.258;2022-09-01T08:38:03;8.40;;;5.47;;
6564;SDS011;3316;44.118;27.258;2022-09-01T08:40:28;9.52;;;4.85;;
6564;SDS011;3316;44.118;27.258;2022-09-01T08:43:01;9.35;;;4.97;;
6564;SDS011;3316;44.118;27.258;2022-09-01T08:45:49;8.45;;;4.97;;
6564;SDS011;3316;44.118;27.258;2022-09-01T08:48:20;7.28;;;5.20;;
6564;SDS011;3316;44.118;27.258;2022-09-01T08:50:52;10.05;;;4.85;;
6564;SDS011;3316;44.118;27.258;2022-09-01T08:53:27;8.15;;;4.82;;
6564;SDS011;3316;44.118;27.258;2022-09-01T08:55:57;6.95;;;4.55;;
6564;SDS011;3316;44.118;27.258;2022-09-01T08:58:24;8.70;;;4.80;;
6564;SDS011;3316;44.118;27.258;2022-09-01T09:00:55;16.95;;;4.60;;
6564;SDS011;3316;44.118;27.258;2022-09-01T09:06:16;9.20;;;5.43;;
6564;SDS011;3316;44.118;27.258;2022-09-01T09:14:21;8.40;;;4.45;;
6564;SDS011;3316;44.118;27.258;2022-09-01T09:16:54;8.88;;;4.78;;
6564;SDS011;3316;44.118;27.258;2022-09-01T09:21:53;8.45;;;4.38;;
6564;SDS011;3316;44.118;27.258;2022-09-01T09:27:11;8.35;;;5.05;;
6564;SDS011;3316;44.118;27.258;2022-09-01T09:29:47;10.15;;;4.60;;
6564;SDS011;3316;44.118;27.258;2022-09-01T09:32:16;9.23;;;5.07;;
6564;SDS011;3316;44.118;27.258;2022-09-01T09:34:42;10.07;;;4.80;;
6564;SDS011;3316;44.118;27.258;2022-09-01T09:45:26;10.77;;;5.43;;
6564;SDS011;3316;44.118;27.258;2022-09-01T09:47:55;9.60;;;4.97;;
6564;SDS011;3316;44.118;27.258;2022-09-01T09:50:26;7.65;;;4.90;;
6564;SDS011;3316;44.118;27.258;2022-09-01T09:53:08;10.60;;;4.60;;
6564;SDS011;3316;44.118;27.258;2022-09-01T09:56:00;6.95;;;5.07;;
6564;SDS011;3316;44.118;27.258;2022-09-01T09:58:37;9.48;;;4.68;;
6564;SDS011;3316;44.118;27.258;2022-09-01T10:01:11;10.15;;;4.95;;
6564;SDS011;3316;44.118;27.258;2022-09-01T10:03:53;5.90;;;4.60;;
6564;SDS011;3316;44.118;27.258;2022-09-01T10:09:41;8.10;;;4.72;;
6564;SDS011;3316;44.118;27.258;2022-09-01T10:11:50;11.32;;;5.30;;
6564;SDS011;3316;44.118;27.258;2022-09-01T10:14:22;6.93;;;4.82;;
6564;SDS011;3316;44.118;27.258;2022-09-01T10:16:57;7.47;;;4.70;;
6564;SDS011;3316;44.118;27.258;2022-09-01T10:19:26;6.63;;;4.60;;
6564;SDS011;3316;44.118;27.258;2022-09-01T10:21:56;7.90;;;4.72;;
6564;SDS011;3316;44.118;27.258;2022-09-01T10:24:32;12.45;;;5.10;;
6564;SDS011;3316;44.118;27.258;2022-09-01T10:27:05;7.32;;;4.40;;
6564;SDS011;3316;44.118;27.258;2022-09-01T10:29:39;10.40;;;5.13;;
6564;SDS011;3316;44.118;27.258;2022-09-01T10:32:11;6.82;;;4.93;;
6564;SDS011;3316;44.118;27.258;2022-09-01T10:34:42;7.47;;;5.13;;
6564;SDS011;3316;44.118;27.258;2022-09-01T10:37:10;7.30;;;4.43;;
6564;SDS011;3316;44.118;27.258;2022-09-01T10:40:08;10.00;;;5.43;;
6564;SDS011;3316;44.118;27.258;2022-09-01T10:42:41;9.90;;;4.53;;
6564;SDS011;3316;44.118;27.258;2022-09-01T10:47:55;12.68;;;5.47;;
6564;SDS011;3316;44.118;27.258;2022-09-01T10:50:41;14.93;;;5.53;;
6564;SDS011;3316;44.118;27.258;2022-09-01T10:53:07;11.27;;;5.63;;
6564;SDS011;3316;44.118;27.258;2022-09-01T10:55:34;12.60;;;4.72;;
6564;SDS011;3316;44.118;27.258;2022-09-01T11:00:52;7.93;;;4.90;;
6564;SDS011;3316;44.118;27.258;2022-09-01T11:10:54;11.63;;;4.70;;
6564;SDS011;3316;44.118;27.258;2022-09-01T11:18:51;5.78;;;4.60;;
6564;SDS011;3316;44.118;27.258;2022-09-01T11:21:27;9.50;;;4.80;;
6564;SDS011;3316;44.118;27.258;2022-09-01T11:26:58;7.50;;;4.40;;
6564;SDS011;3316;44.118;27.258;2022-09-01T11:32:36;9.32;;;4.70;;
6564;SDS011;3316;44.118;27.258;2022-09-01T11:35:04;12.10;;;5.28;;
6564;SDS011;3316;44.118;27.258;2022-09-01T11:37:39;9.07;;;4.75;;
6564;SDS011;3316;44.118;27.258;2022-09-01T11:40:05;7.57;;;4.47;;
6564;SDS011;3316;44.118;27.258;2022-09-01T11:42:38;5.10;;;4.30;;
6564;SDS011;3316;44.118;27.258;2022-09-01T11:47:39;11.05;;;4.88;;
6564;SDS011;3316;44.118;27.258;2022-09-01T11:50:22;15.57;;;5.80;;
6564;SDS011;3316;44.118;27.258;2022-09-01T11:52:59;10.65;;;4.72;;
6564;SDS011;3316;44.118;27.258;2022-09-01T11:55:32;11.15;;;4.72;;
6564;SDS011;3316;44.118;27.258;2022-09-01T11:57:58;8.93;;;3.97;;
6564;SDS011;3316;44.118;27.258;2022-09-01T12:00:26;7.00;;;4.18;;
6564;SDS011;3316;44.118;27.258;2022-09-01T12:02:54;10.07;;;4.47;;
6564;SDS011;3316;44.118;27.258;2022-09-01T12:07:52;9.52;;;4.32;;
6564;SDS011;3316;44.118;27.258;2022-09-01T12:12:46;6.80;;;4.50;;
6564;SDS011;3316;44.118;27.258;2022-09-01T12:15:25;5.25;;;3.88;;
6564;SDS011;3316;44.118;27.258;2022-09-01T12:17:51;9.82;;;4.32;;
6564;SDS011;3316;44.118;27.258;2022-09-01T12:20:25;7.63;;;4.13;;
6564;SDS011;3316;44.118;27.258;2022-09-01T12:22:53;7.60;;;4.10;;
6564;SDS011;3316;44.118;27.258;2022-09-01T12:27:53;8.93;;;3.90;;
6564;SDS011;3316;44.118;27.258;2022-09-01T12:30:19;6.40;;;4.47;;
6564;SDS011;3316;44.118;27.258;2022-09-01T12:32:45;8.65;;;4.30;;
6564;SDS011;3316;44.118;27.258;2022-09-01T12:35:22;11.40;;;5.55;;
6564;SDS011;3316;44.118;27.258;2022-09-01T12:37:50;10.07;;;4.53;;
6564;SDS011;3316;44.118;27.258;2022-09-01T12:40:20;5.88;;;4.25;;
6564;SDS011;3316;44.118;27.258;2022-09-01T12:42:56;9.63;;;4.35;;
6564;SDS011;3316;44.118;27.258;2022-09-01T12:45:35;8.02;;;3.75;;
6564;SDS011;3316;44.118;27.258;2022-09-01T12:48:02;11.25;;;4.25;;
6564;SDS011;3316;44.118;27.258;2022-09-01T12:52:54;5.70;;;4.05;;
6564;SDS011;3316;44.118;27.258;2022-09-01T12:55:26;11.45;;;4.10;;
6564;SDS011;3316;44.118;27.258;2022-09-01T12:57:59;8.23;;;4.07;;
6564;SDS011;3316;44.118;27.258;2022-09-01T13:00:30;8.90;;;4.10;;
6564;SDS011;3316;44.118;27.258;2022-09-01T13:05:31;8.68;;;4.25;;
6564;SDS011;3316;44.118;27.258;2022-09-01T13:07:59;14.07;;;5.15;;
6564;SDS011;3316;44.118;27.258;2022-09-01T13:10:28;11.65;;;4.93;;
6564;SDS011;3316;44.118;27.258;2022-09-01T13:12:57;7.18;;;4.25;;
6564;SDS011;3316;44.118;27.258;2022-09-01T13:15:22;10.43;;;4.45;;
6564;SDS011;3316;44.118;27.258;2022-09-01T13:17:50;13.45;;;5.43;;
6564;SDS011;3316;44.118;27.258;2022-09-01T13:20:16;13.13;;;4.60;;
6564;SDS011;3316;44.118;27.258;2022-09-01T13:22:42;12.48;;;4.45;;
6564;SDS011;3316;44.118;27.258;2022-09-01T13:25:09;5.85;;;4.15;;
6564;SDS011;3316;44.118;27.258;2022-09-01T13:27:37;5.88;;;3.70;;
6564;SDS011;3316;44.118;27.258;2022-09-01T13:30:08;7.68;;;4.03;;
6564;SDS011;3316;44.118;27.258;2022-09-01T13:32:40;9.13;;;4.55;;
6564;SDS011;3316;44.118;27.258;2022-09-01T13:35:06;6.97;;;4.55;;
6564;SDS011;3316;44.118;27.258;2022-09-01T13:37:32;50.28;;;12.93;;
6564;SDS011;3316;44.118;27.258;2022-09-01T13:39:58;7.97;;;4.07;;
6564;SDS011;3316;44.118;27.258;2022-09-01T13:42:23;9.25;;;5.10;;
6564;SDS011;3316;44.118;27.258;2022-09-01T13:44:49;8.50;;;4.38;;
6564;SDS011;3316;44.118;27.258;2022-09-01T13:47:14;12.35;;;4.50;;
6564;SDS011;3316;44.118;27.258;2022-09-01T13:49:40;6.97;;;3.90;;
6564;SDS011;3316;44.118;27.258;2022-09-01T13:52:05;6.45;;;4.90;;
6564;SDS011;3316;44.118;27.258;2022-09-01T13:54:31;11.57;;;4.70;;
6564;SDS011;3316;44.118;27.258;2022-09-01T13:56:56;9.98;;;3.83;;
6564;SDS011;3316;44.118;27.258;2022-09-01T13:59:22;7.97;;;4.22;;
6564;SDS011;3316;44.118;27.258;2022-09-01T14:01:48;8.27;;;3.47;;
6564;SDS011;3316;44.118;27.258;2022-09-01T14:04:14;7.88;;;4.38;;
6564;SDS011;3316;44.118;27.258;2022-09-01T14:06:39;6.20;;;3.75;;
6564;SDS011;3316;44.118;27.258;2022-09-01T14:09:08;7.40;;;3.40;;
6564;SDS011;3316;44.118;27.258;2022-09-01T14:11:34;8.48;;;3.75;;
6564;SDS011;3316;44.118;27.258;2022-09-01T14:14:00;25.27;;;8.30;;
6564;SDS011;3316;44.118;27.258;2022-09-01T14:16:26;7.13;;;3.92;;
6564;SDS011;3316;44.118;27.258;2022-09-01T14:18:51;7.50;;;4.53;;
6564;SDS011;3316;44.118;27.258;2022-09-01T14:21:17;8.77;;;4.00;;
6564;SDS011;3316;44.118;27.258;2022-09-01T14:23:42;10.05;;;4.63;;
6564;SDS011;3316;44.118;27.258;2022-09-01T14:26:10;6.25;;;3.83;;
6564;SDS011;3316;44.118;27.258;2022-09-01T14:28:37;10.57;;;4.25;;
6564;SDS011;3316;44.118;27.258;2022-09-01T14:31:10;7.75;;;4.40;;
6564;SDS011;3316;44.118;27.258;2022-09-01T14:33:38;8.40;;;4.30;;
6564;SDS011;3316;44.118;27.258;2022-09-01T14:36:05;10.05;;;3.72;;
6564;SDS011;3316;44.118;27.258;2022-09-01T14:38:32;9.98;;;4.20;;
6564;SDS011;3316;44.118;27.258;2022-09-01T14:40:59;6.18;;;4.20;;
6564;SDS011;3316;44.118;27.258;2022-09-01T14:43:26;6.47;;;3.92;;
6564;SDS011;3316;44.118;27.258;2022-09-01T14:46:01;10.13;;;4.32;;
6564;SDS011;3316;44.118;27.258;2022-09-01T14:48:30;8.07;;;4.10;;
6564;SDS011;3316;44.118;27.258;2022-09-01T14:50:57;8.82;;;4.88;;
6564;SDS011;3316;44.118;27.258;2022-09-01T14:53:23;9.40;;;4.20;;
6564;SDS011;3316;44.118;27.258;2022-09-01T14:55:48;11.88;;;4.10;;
6564;SDS011;3316;44.118;27.258;2022-09-01T14:58:14;6.32;;;4.28;;
6564;SDS011;3316;44.118;27.258;2022-09-01T15:00:39;7.63;;;3.85;;
6564;SDS011;3316;44.118;27.258;2022-09-01T15:03:05;6.25;;;4.53;;
6564;SDS011;3316;44.118;27.258;2022-09-01T15:05:31;4.88;;;3.88;;
6564;SDS011;3316;44.118;27.258;2022-09-01T15:07:57;11.02;;;4.68;;
6564;SDS011;3316;44.118;27.258;2022-09-01T15:10:23;7.78;;;3.78;;
6564;SDS011;3316;44.118;27.258;2022-09-01T15:12:50;13.52;;;4.50;;
6564;SDS011;3316;44.118;27.258;2022-09-01T15:15:17;5.28;;;3.80;;
6564;SDS011;3316;44.118;27.258;2022-09-01T15:17:42;6.28;;;3.58;;
6564;SDS011;3316;44.118;27.258;2022-09-01T15:20:08;7.75;;;4.05;;
6564;SDS011;3316;44.118;27.258;2022-09-01T15:22:52;10.68;;;4.10;;
6564;SDS011;3316;44.118;27.258;2022-09-01T15:25:18;9.35;;;4.03;;
6564;SDS011;3316;44.118;27.258;2022-09-01T15:27:44;7.03;;;4.22;;
6564;SDS011;3316;44.118;27.258;2022-09-01T15:30:10;6.40;;;4.00;;
6564;SDS011;3316;44.118;27.258;2022-09-01T15:32:44;8.05;;;4.53;;
6564;SDS011;3316;44.118;27.258;2022-09-01T15:35:12;7.10;;;4.28;;
6564;SDS011;3316;44.118;27.258;2022-09-01T15:37:40;9.02;;;4.25;;
6564;SDS011;3316;44.118;27.258;2022-09-01T15:40:05;7.43;;;4.22;;
6564;SDS011;3316;44.118;27.258;2022-09-01T15:42:33;6.97;;;4.35;;
6564;SDS011;3316;44.118;27.258;2022-09-01T15:45:04;7.80;;;4.50;;
6564;SDS011;3316;44.118;27.258;2022-09-01T15:47:32;7.22;;;3.80;;
6564;SDS011;3316;44.118;27.258;2022-09-01T15:49:58;5.13;;;4.03;;
6564;SDS011;3316;44.118;27.258;2022-09-01T15:52:24;8.10;;;4.25;;
6564;SDS011;3316;44.118;27.258;2022-09-01T15:54:51;7.28;;;3.85;;
6564;SDS011;3316;44.118;27.258;2022-09-01T15:57:17;7.63;;;3.75;;
6564;SDS011;3316;44.118;27.258;2022-09-01T15:59:43;10.27;;;4.15;;
6564;SDS011;3316;44.118;27.258;2022-09-01T16:02:09;8.85;;;4.32;;
6564;SDS011;3316;44.118;27.258;2022-09-01T16:04:37;7.38;;;4.13;;
6564;SDS011;3316;44.118;27.258;2022-09-01T16:07:03;4.68;;;3.55;;
6564;SDS011;3316;44.118;27.258;2022-09-01T16:09:29;4.10;;;3.40;;
6564;SDS011;3316;44.118;27.258;2022-09-01T16:11:55;7.57;;;3.50;;
6564;SDS011;3316;44.118;27.258;2022-09-01T16:14:20;5.25;;;3.65;;